Time,TemperatureF,DewpointF,PressureIn,WindDirection,WindDirectionDegrees,WindSpeedMPH,WindSpeedGustMPH,Humidity,HourlyPrecipIn,Conditions,Clouds,dailyrainin,SoftwareType,DateUTC
2013-07-28 00:02:00,54.0,45.0,-100.00,North,0,6.0,9.0,69,0.00,,,0.00,,2013-07-28 05:02:00,
2013-07-28 00:12:00,53.0,45.0,-100.00,North,355,7.0,11.0,69,0.00,,,0.00,,2013-07-28 05:12:00,
2013-07-28 01:12:00,50.0,45.0,-100.00,NNW,340,4.0,6.0,81,0.00,,,0.00,,2013-07-28 06:12:00,
2013-07-28 01:32:00,49.0,45.0,-100.00,NNW,340,4.0,6.0,83,0.00,,,0.00,,2013-07-28 06:32:00,
2013-07-28 02:02:00,49.0,45.0,-100.00,NNW,335,4.0,6.0,85,0.00,,,0.00,,2013-07-28 07:02:00,
2013-07-28 02:12:00,49.0,45.0,-100.00,NW,320,4.0,7.0,84,0.00,,,0.00,,2013-07-28 07:12:00,
2013-07-28 02:53:00,48.0,45.0,-100.00,NW,305,6.0,7.0,88,0.00,,,0.00,,2013-07-28 07:53:00,
2013-07-28 03:12:00,47.0,45.0,-100.00,WNW,300,6.0,7.0,90,0.00,,,0.00,,2013-07-28 08:12:00,
2013-07-28 04:02:00,48.0,45.0,-100.00,NW,310,6.0,9.0,89,0.00,,,0.00,,2013-07-28 09:02:00,
2013-07-28 04:12:00,48.0,45.0,-100.00,NNW,340,5.0,8.0,87,0.00,,,0.00,,2013-07-28 09:12:00,
2013-07-28 05:12:00,45.0,43.0,-100.00,WNW,300,4.0,6.0,93,0.00,,,0.00,,2013-07-28 10:12:00,
2013-07-28 05:22:00,45.0,45.0,-100.00,NW,315,4.0,6.0,93,0.00,,,0.00,,2013-07-28 10:22:00,
2013-07-28 05:52:00,46.0,45.0,-100.00,WNW,300,5.0,6.0,92,0.00,,,0.00,,2013-07-28 10:52:00,
2013-07-28 06:33:00,48.0,45.0,-100.00,NNW,330,4.0,9.0,89,0.00,,,0.00,,2013-07-28 11:33:00,
2013-07-28 07:12:00,50.0,46.0,-100.00,North,0,4.0,6.0,86,0.00,,,0.00,,2013-07-28 12:12:00,
2013-07-28 07:33:00,51.0,46.0,-100.00,NNW,330,5.0,9.0,83,0.00,,,0.00,,2013-07-28 12:33:00,
2013-07-28 08:12:00,53.0,46.0,-100.00,North,350,9.0,12.0,79,0.00,,,0.00,,2013-07-28 13:12:00,
2013-07-28 09:23:00,56.0,46.0,-100.00,NNW,340,9.0,13.0,70,0.00,,,0.00,,2013-07-28 14:23:00,
2013-07-28 10:03:00,58.0,48.0,-100.00,North,10,12.0,14.0,68,0.00,,,0.00,,2013-07-28 15:03:00,
2013-07-28 10:13:00,60.0,48.0,-100.00,North,5,6.0,11.0,64,0.00,,,0.00,,2013-07-28 15:13:00,
2013-07-28 11:02:00,61.0,50.0,-100.00,North,0,8.0,14.0,65,0.00,,,0.00,,2013-07-28 16:02:00,
2013-07-28 11:12:00,62.0,48.0,-100.00,North,5,7.0,12.0,62,0.00,,,0.00,,2013-07-28 16:12:00,
2013-07-28 12:12:00,64.0,50.0,-100.00,NW,315,6.0,12.0,60,0.00,,,0.00,,2013-07-28 17:12:00,
2013-07-28 13:03:00,67.0,52.0,-100.00,NW,325,7.0,12.0,57,0.00,,,0.00,,2013-07-28 18:03:00,
2013-07-28 13:12:00,68.0,52.0,-100.00,NW,315,5.0,11.0,55,0.00,,,0.00,,2013-07-28 18:12:00,
2013-07-28 13:33:00,67.0,52.0,-100.00,West,280,6.0,10.0,57,0.00,,,0.00,,2013-07-28 18:33:00,
2013-07-28 13:43:00,68.0,52.0,-100.00,WNW,295,7.0,14.0,57,0.00,,,0.00,,2013-07-28 18:43:00,
2013-07-28 14:02:00,68.0,52.0,-100.00,West,280,8.0,12.0,54,0.00,,,0.00,,2013-07-28 19:02:00,
2013-07-28 15:02:00,71.0,52.0,-100.00,NNW,330,9.0,17.0,49,0.00,,,0.00,,2013-07-28 20:02:00,
2013-07-28 15:12:00,71.0,52.0,-100.00,NW,310,7.0,12.0,51,0.00,,,0.00,,2013-07-28 20:12:00,
2013-07-28 17:02:00,72.0,52.0,-100.00,NNW,340,7.0,12.0,48,0.00,,,0.00,,2013-07-28 22:02:00,
2013-07-28 17:12:00,72.0,52.0,-100.00,NNW,330,6.0,10.0,48,0.00,,,0.00,,2013-07-28 22:12:00,
2013-07-28 17:22:00,72.0,52.0,-100.00,NNW,330,6.0,10.0,48,0.00,,,0.00,,2013-07-28 22:22:00,
2013-07-28 17:32:00,72.0,52.0,-100.00,North,350,6.0,9.0,49,0.00,,,0.00,,2013-07-28 22:32:00,
2013-07-28 17:43:00,72.0,52.0,-100.00,North,0,7.0,10.0,50,0.00,,,0.00,,2013-07-28 22:43:00,
2013-07-28 18:03:00,71.0,52.0,-100.00,North,0,8.0,11.0,49,0.00,,,0.00,,2013-07-28 23:03:00,
2013-07-28 18:12:00,72.0,52.0,-100.00,North,0,8.0,10.0,48,0.00,,,0.00,,2013-07-28 23:12:00,
2013-07-28 18:53:00,71.0,52.0,-100.00,North,10,7.0,9.0,49,0.00,,,0.00,,2013-07-28 23:53:00,
2013-07-28 19:03:00,71.0,52.0,-100.00,North,5,6.0,10.0,50,0.00,,,0.00,,2013-07-29 00:03:00,
2013-07-28 19:12:00,72.0,54.0,-100.00,NW,325,4.0,6.0,52,0.00,,,0.00,,2013-07-29 00:12:00,
2013-07-28 19:32:00,71.0,52.0,-100.00,North,0,4.0,8.0,52,0.00,,,0.00,,2013-07-29 00:32:00,
2013-07-28 19:43:00,71.0,54.0,-100.00,North,10,3.0,8.0,56,0.00,,,0.00,,2013-07-29 00:43:00,
2013-07-28 19:52:00,69.0,54.0,-100.00,NNE,20,6.0,9.0,55,0.00,,,0.00,,2013-07-29 00:52:00,
2013-07-28 20:27:00,67.0,54.0,-100.00,NNE,30,4.0,5.0,62,0.00,,,0.00,,2013-07-29 01:27:00,
2013-07-28 21:14:00,62.0,54.0,-100.00,NE,45,2.0,3.0,73,0.00,,,0.00,,2013-07-29 02:14:00,
2013-07-28 22:24:00,57.0,54.0,-100.00,NE,50,0.0,1.0,86,0.00,,,0.00,,2013-07-29 03:24:00,
2013-07-28 23:12:00,56.0,52.0,-100.00,NE,35,0.0,1.0,87,0.00,,,0.00,,2013-07-29 04:12:00,